Time;durP1;ratioP1;P1;durP2;ratioP2;P2;SDS_P1;SDS_P2;PMS_P1;PMS_P2;Temp;Humidity;BMP_temperature;BMP_pressure;BME280_temperature;BME280_humidity;BME280_pressure;Samples;Min_cycle;Max_cycle;Signal;HPM_P1;HPM_P2
2023/04/03 00:00:31;;;;;;;7.90;5.55;;;;;;;3.74;74.81;102724.22;3615168;39;20054;-69
2023/04/03 00:02:57;;;;;;;7.72;5.90;;;;;;;3.71;74.68;102721.56;3613879;39;20050;-69
2023/04/03 00:05:23;;;;;;;8.68;5.85;;;;;;;3.69;75.18;102728.69;3613073;39;20051;-69
2023/04/03 00:07:49;;;;;;;7.68;5.72;;;;;;;3.67;75.69;102725.13;3608735;39;20325;-69
2023/04/03 00:10:16;;;;;;;9.45;6.10;;;;;;;3.66;74.94;102723.38;3614876;39;21310;-69
2023/04/03 00:12:41;;;;;;;8.55;6.18;;;;;;;3.45;75.19;102687.94;3615298;39;20285;-69
2023/04/03 00:15:08;;;;;;;7.30;5.90;;;;;;;3.63;75.03;102724.25;3612977;39;20047;-69
2023/04/03 00:17:34;;;;;;;8.75;5.55;;;;;;;3.62;75.31;102726.94;3613309;39;20120;-69
2023/04/03 00:20:00;;;;;;;7.75;5.80;;;;;;;3.59;75.37;102725.16;3616112;39;20054;-69
2023/04/03 00:22:28;;;;;;;6.22;5.63;;;;;;;3.56;74.72;102733.13;3613056;39;20063;-69
2023/04/03 00:24:55;;;;;;;6.57;5.82;;;;;;;3.55;75.45;102738.44;3613305;39;20058;-69
2023/04/03 00:27:20;;;;;;;6.65;5.68;;;;;;;3.53;74.76;102737.59;3613154;39;20462;-69
2023/04/03 00:29:46;;;;;;;7.18;5.93;;;;;;;3.52;74.17;102738.44;3616866;39;20051;-69
2023/04/03 00:32:12;;;;;;;6.75;5.22;;;;;;;3.48;74.64;102741.13;3617605;39;20050;-69
2023/04/03 00:34:38;;;;;;;10.20;5.80;;;;;;;3.42;74.87;102727.81;3617667;39;20047;-70
2023/04/03 00:37:04;;;;;;;6.80;5.70;;;;;;;3.33;74.80;102708.34;3619584;39;20442;-70
2023/04/03 00:39:30;;;;;;;9.40;6.22;;;;;;;3.48;75.18;102737.56;3616148;39;20119;-69
2023/04/03 00:41:56;;;;;;;9.35;6.10;;;;;;;3.40;74.34;102726.97;3606336;39;20366;-69
2023/04/03 00:44:48;;;;;;;8.60;5.57;;;;;;;3.42;74.98;102743.78;3618313;39;20276;-69
2023/04/03 00:47:18;;;;;;;8.60;5.97;;;;;;;3.41;74.23;102738.47;3597660;39;20066;-69
2023/04/03 00:49:45;;;;;;;8.88;5.57;;;;;;;3.37;74.35;102742.03;3616880;39;20428;-69
2023/04/03 00:52:21;;;;;;;6.80;5.35;;;;;;;3.38;74.95;102743.81;3614634;39;20124;-69
2023/04/03 00:54:54;;;;;;;10.95;5.90;;;;;;;3.20;75.37;102723.44;3615098;39;20440;-69
2023/04/03 00:57:22;;;;;;;9.73;5.70;;;;;;;3.34;74.50;102747.34;3616853;39;20083;-69
2023/04/03 00:59:59;;;;;;;7.05;5.80;;;;;;;3.30;74.88;102746.47;3614929;39;20050;-69
2023/04/03 01:02:25;;;;;;;9.02;5.90;;;;;;;3.30;74.66;102748.22;3617077;39;20047;-69
2023/04/03 01:04:51;;;;;;;9.10;5.38;;;;;;;3.30;75.01;102750.88;3614957;39;20042;-70
2023/04/03 01:07:28;;;;;;;7.75;5.95;;;;;;;3.28;74.10;102753.56;3614687;39;20312;-69
2023/04/03 01:10:00;;;;;;;9.55;5.57;;;;;;;3.26;74.62;102756.19;3617796;39;20071;-69
2023/04/03 01:12:31;;;;;;;7.57;5.32;;;;;;;3.25;74.91;102746.47;3614231;39;20051;-69
2023/04/03 01:15:20;;;;;;;8.85;5.28;;;;;;;3.24;74.48;102752.66;3614614;39;20047;-69
2023/04/03 01:17:57;;;;;;;10.05;6.25;;;;;;;3.23;74.86;102750.00;3617923;39;20050;-69
2023/04/03 01:20:35;;;;;;;10.18;6.53;;;;;;;3.20;75.44;102755.31;3617288;39;20104;-69
2023/04/03 01:23:09;;;;;;;13.73;6.85;;;;;;;3.18;75.28;102751.78;3614584;39;20057;-69
2023/04/03 01:25:49;;;;;;;10.27;6.03;;;;;;;3.15;76.19;102752.66;3614152;39;20305;-69
2023/04/03 01:28:40;;;;;;;11.10;6.65;;;;;;;3.14;75.86;102755.31;3613845;39;20062;-69
2023/04/03 01:31:25;;;;;;;12.73;7.00;;;;;;;3.14;76.36;102756.22;3617159;39;20054;-69
2023/04/03 01:33:52;;;;;;;10.32;6.60;;;;;;;3.04;76.63;102738.50;3614144;39;20055;-69
2023/04/03 01:36:24;;;;;;;10.73;6.55;;;;;;;3.11;76.52;102755.31;3614080;39;20063;-69
2023/04/03 01:38:50;;;;;;;11.48;6.90;;;;;;;3.08;76.12;102758.88;3616355;39;20088;-69
2023/04/03 01:41:16;;;;;;;7.85;6.38;;;;;;;2.90;76.20;102735.84;3615648;39;20153;-69
2023/04/03 01:43:42;;;;;;;10.90;6.55;;;;;;;2.77;76.72;102719.00;3617895;39;20106;-69
2023/04/03 01:46:08;;;;;;;8.02;6.57;;;;;;;2.91;76.40;102742.91;3614096;39;20385;-69
2023/04/03 01:48:34;;;;;;;13.55;6.90;;;;;;;2.66;76.20;102698.63;3617731;39;20324;-69
2023/04/03 01:51:00;;;;;;;8.90;6.32;;;;;;;3.01;76.32;102749.09;3614648;39;20047;-69
2023/04/03 01:53:26;;;;;;;10.48;6.80;;;;;;;2.91;76.01;102737.59;3616973;39;20049;-69
2023/04/03 01:55:51;;;;;;;10.30;6.55;;;;;;;2.98;76.15;102758.00;3614093;39;20086;-69
2023/04/03 01:58:17;;;;;;;11.90;6.47;;;;;;;2.64;76.17;102695.09;3620514;39;20070;-69
2023/04/03 02:00:43;;;;;;;9.05;6.40;;;;;;;2.91;76.61;102748.22;3615541;39;20094;-69
2023/04/03 02:03:08;;;;;;;9.20;6.45;;;;;;;2.84;76.55;102733.16;3614901;39;20047;-69
2023/04/03 02:05:34;;;;;;;9.10;6.18;;;;;;;2.94;75.60;102752.66;3616525;39;20154;-69
2023/04/03 02:08:00;;;;;;;10.07;6.05;;;;;;;2.76;75.71;102721.69;3614069;39;20106;-69
2023/04/03 02:10:25;;;;;;;7.95;6.05;;;;;;;2.68;75.64;102713.69;3615878;39;20058;-69
2023/04/03 02:12:51;;;;;;;10.77;6.22;;;;;;;2.92;76.34;102754.44;3613958;39;20359;-69
2023/04/03 02:15:17;;;;;;;9.55;6.43;;;;;;;2.92;76.29;102757.09;3614344;39;20087;-69
2023/04/03 02:17:43;;;;;;;8.77;6.15;;;;;;;2.90;75.84;102754.44;3617512;39;20042;-69
2023/04/03 02:20:09;;;;;;;9.43;6.57;;;;;;;2.89;75.03;102760.63;3615849;39;20123;-68
2023/04/03 02:22:35;;;;;;;11.63;6.82;;;;;;;2.89;75.92;102760.63;3613924;39;20094;-69
2023/04/03 02:25:02;;;;;;;20.08;11.73;;;;;;;2.89;76.14;102763.28;3614242;39;20050;-69
2023/04/03 02:27:27;;;;;;;10.75;7.63;;;;;;;2.89;75.62;102759.75;3617553;39;20078;-69
2023/04/03 02:29:53;;;;;;;9.05;7.13;;;;;;;2.88;75.92;102763.28;3614056;39;20065;-69
2023/04/03 02:32:19;;;;;;;12.68;6.20;;;;;;;2.89;76.88;102760.63;3614537;39;20050;-69
2023/04/03 02:34:44;;;;;;;8.93;6.68;;;;;;;2.90;76.51;102762.41;3614525;39;20057;-69
2023/04/03 02:37:10;;;;;;;9.80;6.32;;;;;;;2.90;75.32;102766.81;3615810;39;20873;-69
2023/04/03 02:39:36;;;;;;;6.78;5.53;;;;;;;2.88;76.08;102769.47;3606501;39;20043;-68
2023/04/03 02:42:01;;;;;;;7.88;6.07;;;;;;;2.87;75.69;102773.00;3614651;39;20047;-69
2023/04/03 02:44:27;;;;;;;8.38;5.90;;;;;;;2.86;75.27;102776.56;3617123;39;20070;-69
2023/04/03 02:46:52;;;;;;;8.05;6.07;;;;;;;2.82;75.16;102768.56;3614060;39;20378;-69
2023/04/03 02:49:18;;;;;;;7.50;5.78;;;;;;;2.74;76.34;102758.84;3617955;39;20059;-69
2023/04/03 02:51:44;;;;;;;7.30;5.75;;;;;;;2.82;75.27;102781.84;3613855;39;20070;-69
2023/04/03 02:54:09;;;;;;;6.90;5.40;;;;;;;2.78;75.50;102783.63;3617481;39;20070;-69
2023/04/03 02:56:35;;;;;;;10.90;5.85;;;;;;;2.77;76.16;102789.81;3614880;39;20163;-69
2023/04/03 02:59:01;;;;;;;5.97;4.90;;;;;;;2.75;75.95;102783.63;3617470;39;20266;-70
2023/04/03 03:01:31;;;;;;;7.25;4.93;;;;;;;2.73;76.72;102785.41;3616562;39;20098;-69
2023/04/03 03:04:00;;;;;;;8.23;4.93;;;;;;;2.69;76.83;102775.63;3613106;39;20094;-69
2023/04/03 03:06:26;;;;;;;7.20;5.35;;;;;;;2.73;75.46;102780.97;3607192;39;20109;-69
2023/04/03 03:08:52;;;;;;;8.10;4.97;;;;;;;2.68;75.78;102777.41;3617960;39;20127;-69
2023/04/03 03:11:18;;;;;;;8.05;5.30;;;;;;;2.70;75.62;102780.09;3617588;39;20047;-69
2023/04/03 03:13:44;;;;;;;6.90;4.97;;;;;;;2.70;75.40;102774.78;3613394;39;20049;-69
2023/04/03 03:16:10;;;;;;;7.30;5.28;;;;;;;2.71;76.31;102769.44;3604145;39;20103;-68
2023/04/03 03:18:36;;;;;;;7.47;4.78;;;;;;;2.04;75.77;102657.81;3613743;39;20079;-69
2023/04/03 03:21:04;;;;;;;6.97;4.93;;;;;;;2.71;75.72;102777.41;3616575;39;20047;-69
2023/04/03 03:23:32;;;;;;;5.10;4.60;;;;;;;2.43;75.61;102719.84;3616906;39;20410;-69
2023/04/03 03:26:10;;;;;;;7.97;4.97;;;;;;;2.69;75.29;102780.94;3613831;39;20304;-69
2023/04/03 03:28:38;;;;;;;7.05;5.13;;;;;;;2.50;75.26;102748.16;3616811;39;20445;-69
2023/04/03 03:31:04;;;;;;;6.53;4.45;;;;;;;2.70;76.38;102782.72;3613693;39;20045;-69
2023/04/03 03:33:30;;;;;;;8.35;4.28;;;;;;;2.68;75.92;102777.41;3612904;39;20051;-68
2023/04/03 03:35:56;;;;;;;8.07;4.55;;;;;;;2.67;75.36;102785.38;3605252;39;20300;-69
2023/04/03 03:38:23;;;;;;;9.80;5.57;;;;;;;2.65;75.68;102788.00;3603322;39;20395;-69
2023/04/03 03:40:50;;;;;;;6.05;4.97;;;;;;;2.64;75.29;102786.25;3617084;39;20083;-69
2023/04/03 03:43:17;;;;;;;5.22;4.72;;;;;;;2.61;74.71;102780.06;3616286;39;20055;-69
2023/04/03 03:45:45;;;;;;;7.32;4.72;;;;;;;2.62;75.29;102798.63;3618524;39;20053;-69
2023/04/03 03:48:11;;;;;;;6.65;4.43;;;;;;;2.25;75.26;102739.22;3617393;39;20393;-69
2023/04/03 03:50:37;;;;;;;5.93;4.38;;;;;;;2.56;75.79;102794.19;3615080;39;20051;-69
2023/04/03 03:53:03;;;;;;;6.60;4.40;;;;;;;2.58;74.82;102807.47;3603359;39;20423;-69
2023/04/03 03:55:28;;;;;;;5.45;4.28;;;;;;;2.59;75.02;102800.41;3613433;39;20091;-69
2023/04/03 03:57:54;;;;;;;6.45;4.15;;;;;;;2.58;75.06;102801.28;3615436;39;20043;-69
2023/04/03 04:00:20;;;;;;;6.55;3.88;;;;;;;2.50;75.40;102796.81;3613613;39;20095;-69
2023/04/03 04:02:46;;;;;;;5.70;3.97;;;;;;;2.54;74.53;102806.59;3612953;39;20239;-69
2023/04/03 04:05:12;;;;;;;6.45;4.32;;;;;;;2.53;75.85;102801.25;3603702;39;20366;-69
2023/04/03 04:07:37;;;;;;;7.60;3.92;;;;;;;2.52;75.62;102807.44;3613674;39;20047;-69
2023/04/03 04:10:04;;;;;;;5.07;3.90;;;;;;;2.25;74.99;102763.09;3605069;39;20058;-69
2023/04/03 04:12:30;;;;;;;6.45;3.90;;;;;;;2.49;75.28;102803.00;3613560;39;20051;-69
2023/04/03 04:14:56;;;;;;;6.60;4.30;;;;;;;2.49;76.25;102803.00;3613496;39;20050;-69
2023/04/03 04:17:21;;;;;;;13.98;5.38;;;;;;;2.48;75.42;102806.56;3613318;39;20051;-69
2023/04/03 04:19:47;;;;;;;7.05;4.13;;;;;;;2.42;75.89;102795.03;3612985;39;20063;-69
2023/04/03 04:22:13;;;;;;;13.20;5.10;;;;;;;2.49;75.83;102805.66;3613944;39;20113;-68
2023/04/03 04:24:38;;;;;;;10.20;5.03;;;;;;;2.48;74.89;102805.69;3614892;39;20055;-68
2023/04/03 04:27:04;;;;;;;9.18;5.25;;;;;;;2.41;75.50;102799.47;3614838;39;20054;-68
2023/04/03 04:29:34;;;;;;;11.23;4.95;;;;;;;2.44;74.62;102811.84;3614908;39;20043;-68
2023/04/03 04:32:00;;;;;;;10.00;4.80;;;;;;;2.39;75.66;102800.34;3614927;39;20039;-68
2023/04/03 04:34:26;;;;;;;9.10;4.50;;;;;;;2.42;75.24;102805.66;3617950;39;20061;-68
2023/04/03 04:36:51;;;;;;;6.50;3.70;;;;;;;2.37;74.21;102802.97;3615430;39;20062;-68
2023/04/03 04:39:17;;;;;;;5.25;3.60;;;;;;;2.33;75.53;102812.69;3616461;39;20058;-68
2023/04/03 04:41:43;;;;;;;6.13;3.90;;;;;;;2.27;75.55;102801.16;3619621;39;20054;-68
2023/04/03 04:44:08;;;;;;;7.90;3.60;;;;;;;2.27;75.83;102807.34;3617925;39;20066;-68
2023/04/03 04:46:34;;;;;;;5.85;3.63;;;;;;;2.25;75.26;102816.16;3615285;39;20066;-68
2023/04/03 04:48:59;;;;;;;7.53;3.78;;;;;;;2.25;76.47;102814.44;3618043;39;20051;-68
2023/04/03 04:51:25;;;;;;;8.35;3.90;;;;;;;2.24;75.78;102817.06;3619813;39;20065;-68
2023/04/03 04:53:51;;;;;;;6.95;4.32;;;;;;;2.24;76.71;102817.06;3619216;39;20050;-68
2023/04/03 04:56:16;;;;;;;9.05;4.18;;;;;;;2.26;76.54;102825.94;3615892;39;20059;-68
2023/04/03 04:58:42;;;;;;;7.80;4.07;;;;;;;2.27;75.49;102825.03;3615503;39;20099;-68
2023/04/03 05:01:10;;;;;;;9.90;5.30;;;;;;;2.25;75.37;102824.13;3619259;39;20065;-68
2023/04/03 05:03:36;;;;;;;9.73;5.57;;;;;;;2.13;75.65;102813.50;3614568;39;20042;-68
2023/04/03 05:06:03;;;;;;;16.33;5.75;;;;;;;2.30;75.72;102838.31;3615076;39;20051;-68
2023/04/03 05:08:29;;;;;;;10.65;5.03;;;;;;;2.04;75.32;102793.97;3614800;39;20346;-68
2023/04/03 05:10:55;;;;;;;7.95;4.35;;;;;;;2.30;75.76;102833.00;3617533;39;20046;-68
2023/04/03 05:13:20;;;;;;;9.48;4.28;;;;;;;2.29;75.59;102836.56;3605508;39;20050;-68
2023/04/03 05:15:47;;;;;;;7.85;3.67;;;;;;;2.18;76.23;102820.56;3619920;39;20130;-70
2023/04/03 05:18:13;;;;;;;8.48;4.30;;;;;;;2.28;76.21;102837.41;3615710;39;20051;-69
2023/04/03 05:20:39;;;;;;;7.20;4.03;;;;;;;2.18;75.78;102811.72;3619104;39;20104;-69
2023/04/03 05:23:05;;;;;;;10.35;4.75;;;;;;;2.23;76.08;102823.25;3614846;39;20051;-70
2023/04/03 05:25:31;;;;;;;10.55;4.80;;;;;;;2.33;75.22;102838.34;3614891;39;20055;-68
2023/04/03 05:27:57;;;;;;;9.02;3.92;;;;;;;2.36;76.19;102838.34;3617916;39;20496;-68
2023/04/03 05:30:24;;;;;;;8.52;4.15;;;;;;;2.39;75.39;102845.44;3604681;39;20124;-69
2023/04/03 05:32:49;;;;;;;6.63;3.67;;;;;;;2.39;75.09;102843.69;3615262;39;20089;-70
2023/04/03 05:35:15;;;;;;;4.72;2.90;;;;;;;2.40;74.58;102845.44;3614621;39;20124;-68
2023/04/03 05:37:41;;;;;;;6.50;3.33;;;;;;;2.42;75.16;102854.31;3616071;39;20592;-69
2023/04/03 05:40:08;;;;;;;7.60;3.70;;;;;;;2.44;74.33;102860.53;3622665;39;20334;-69
2023/04/03 05:42:34;;;;;;;7.78;4.10;;;;;;;2.40;74.17;102842.78;3615426;39;20287;-69
2023/04/03 05:45:00;;;;;;;9.27;4.38;;;;;;;2.48;75.12;102845.50;3615988;39;20123;-69
2023/04/03 05:47:25;;;;;;;9.02;3.97;;;;;;;2.52;74.67;102850.81;3614839;39;20047;-69
2023/04/03 05:49:51;;;;;;;6.15;4.30;;;;;;;2.55;74.93;102856.13;3619031;39;20057;-69
2023/04/03 05:52:35;;;;;;;8.18;4.15;;;;;;;2.61;75.12;102849.97;3614408;39;20062;-69
2023/04/03 05:55:01;;;;;;;8.20;3.95;;;;;;;2.44;74.59;102817.13;3614783;39;20066;-69
2023/04/03 05:57:26;;;;;;;9.57;3.53;;;;;;;2.71;74.38;102857.06;3616834;39;20058;-69
2023/04/03 05:59:52;;;;;;;8.18;3.50;;;;;;;2.65;74.43;102846.44;3614536;39;20067;-69
2023/04/03 06:02:21;;;;;;;7.43;3.78;;;;;;;2.75;73.76;102863.28;3605339;39;20063;-69
2023/04/03 06:04:47;;;;;;;8.27;3.42;;;;;;;2.79;73.53;102865.06;3616450;39;20099;-69
2023/04/03 06:07:22;;;;;;;6.07;3.38;;;;;;;2.74;73.04;102841.16;3616258;39;20051;-68
2023/04/03 06:09:52;;;;;;;7.55;3.00;;;;;;;2.95;73.55;102861.59;3617505;39;20055;-68
2023/04/03 06:12:19;;;;;;;8.18;2.38;;;;;;;2.64;72.62;102801.31;3617768;39;20055;-70
2023/04/03 06:14:45;;;;;;;7.60;4.05;;;;;;;3.10;72.04;102862.50;3619970;39;20086;-69
2023/04/03 06:17:12;;;;;;;6.93;3.50;;;;;;;3.03;72.00;102833.25;3616400;39;20050;-69
2023/04/03 06:19:38;;;;;;;7.22;3.10;;;;;;;3.29;71.71;102869.59;3614327;39;20062;-69
2023/04/03 06:22:03;;;;;;;6.03;2.80;;;;;;;3.38;70.88;102871.38;3618237;39;20091;-68
2023/04/03 06:24:30;;;;;;;7.47;2.80;;;;;;;3.17;70.63;102833.28;3616683;39;20046;-68
2023/04/03 06:26:57;;;;;;;6.55;2.38;;;;;;;3.53;70.20;102878.50;3608786;39;20089;-69
2023/04/03 06:29:24;;;;;;;6.90;2.42;;;;;;;3.41;70.22;102840.38;3615589;39;20378;-69
2023/04/03 06:31:51;;;;;;;4.85;2.70;;;;;;;3.75;69.59;102885.59;3614381;39;20083;-69
2023/04/03 06:34:18;;;;;;;4.35;2.60;;;;;;;3.72;68.91;102851.00;3615704;39;20055;-69
2023/04/03 06:36:45;;;;;;;4.53;2.45;;;;;;;4.01;68.71;102885.56;3604098;39;20050;-69
2023/04/03 06:39:24;;;;;;;5.00;2.50;;;;;;;4.11;68.41;102881.09;3617778;39;20050;-69
2023/04/03 06:41:51;;;;;;;6.60;2.53;;;;;;;4.22;67.85;102884.66;3614444;39;20318;-69
2023/04/03 06:44:17;;;;;;;5.40;2.72;;;;;;;4.20;67.53;102867.78;3614842;39;20057;-69
2023/04/03 06:46:46;;;;;;;4.97;2.33;;;;;;;4.25;66.22;102852.69;3613837;39;20047;-69
2023/04/03 06:49:12;;;;;;;7.80;2.40;;;;;;;4.50;66.36;102871.22;3616990;39;20053;-69
2023/04/03 06:51:38;;;;;;;5.18;2.20;;;;;;;4.40;65.04;102839.31;3613795;39;20108;-68
2023/04/03 06:54:06;;;;;;;9.25;2.60;;;;;;;4.87;64.92;102890.63;3618425;39;20042;-68
2023/04/03 06:56:32;;;;;;;6.07;2.22;;;;;;;5.01;64.34;102896.78;3616143;39;20051;-67
2023/04/03 06:58:57;;;;;;;5.68;2.15;;;;;;;5.06;63.23;102888.75;3616404;39;20127;-66
2023/04/03 07:01:27;;;;;;;4.65;2.00;;;;;;;5.19;62.46;102895.75;3616596;39;20050;-67
2023/04/03 07:03:53;;;;;;;8.50;3.67;;;;;;;5.04;62.85;102861.19;3613694;39;20390;-68
2023/04/03 07:06:19;;;;;;;5.03;2.72;;;;;;;5.34;63.12;102887.66;3615287;39;20051;-67
2023/04/03 07:08:48;;;;;;;6.90;2.10;;;;;;;5.55;62.75;102901.72;3619488;39;20066;-68
2023/04/03 07:11:14;;;;;;;4.57;2.45;;;;;;;5.66;61.73;102904.34;3618675;39;20365;-69
2023/04/03 07:13:40;;;;;;;4.78;2.40;;;;;;;5.83;62.17;102897.06;3615995;39;20070;-69
2023/04/03 07:16:08;;;;;;;7.22;2.50;;;;;;;5.97;61.59;102902.31;3613955;39;20124;-68
2023/04/03 07:18:34;;;;;;;5.30;2.60;;;;;;;6.16;60.59;102908.38;3613271;39;20059;-69
2023/04/03 07:21:00;;;;;;;5.28;2.45;;;;;;;6.38;60.18;102909.03;3614267;39;20496;-69
2023/04/03 07:23:25;;;;;;;8.85;2.45;;;;;;;6.57;59.46;102907.06;3613892;39;20043;-69
2023/04/03 07:25:52;;;;;;;5.13;1.95;;;;;;;6.68;58.42;102906.00;3613755;39;20053;-68
2023/04/03 07:28:22;;;;;;;4.78;2.33;;;;;;;6.81;57.52;102904.06;3613204;39;20365;-68
2023/04/03 07:30:59;;;;;;;4.55;2.20;;;;;;;6.97;58.05;102899.38;3608049;39;20371;-69
2023/04/03 07:33:25;;;;;;;4.80;2.08;;;;;;;7.26;57.51;102916.81;3603660;39;20392;-69
2023/04/03 07:35:51;;;;;;;8.98;2.65;;;;;;;7.43;57.04;102920.16;3617427;39;20058;-69
2023/04/03 07:38:16;;;;;;;3.67;2.20;;;;;;;7.62;55.88;102913.59;3613187;39;20050;-69
2023/04/03 07:40:52;;;;;;;3.22;1.95;;;;;;;7.85;55.29;102925.72;3617044;39;20061;-69
2023/04/03 07:43:20;;;;;;;3.08;1.92;;;;;;;8.05;55.87;102923.56;3605926;39;20050;-68
2023/04/03 07:45:49;;;;;;;4.95;2.55;;;;;;;8.37;55.38;102919.41;3613421;39;20055;-69
2023/04/03 07:48:17;;;;;;;3.47;2.13;;;;;;;8.46;54.21;102883.56;3616456;39;20094;-68
2023/04/03 07:50:44;;;;;;;5.88;2.20;;;;;;;8.77;52.12;102886.50;3614354;39;20095;-69
2023/04/03 07:53:10;;;;;;;5.05;2.53;;;;;;;9.12;51.33;102925.09;3613217;39;20055;-70
2023/04/03 07:55:42;;;;;;;11.75;5.03;;;;;;;9.26;50.81;102923.88;3613202;39;20058;-69
2023/04/03 07:58:10;;;;;;;8.85;4.75;;;;;;;9.38;50.30;102921.81;3613309;39;20054;-69
2023/04/03 08:00:36;;;;;;;6.55;2.28;;;;;;;9.50;49.89;102926.91;3613388;39;20102;-69
2023/04/03 08:03:02;;;;;;;7.32;2.30;;;;;;;9.71;49.56;102926.38;3614069;39;20059;-70
2023/04/03 08:05:27;;;;;;;6.13;2.47;;;;;;;9.28;48.85;102829.91;3614343;39;20058;-69
2023/04/03 08:07:53;;;;;;;6.07;2.38;;;;;;;9.93;48.82;102921.38;3613046;39;20095;-70
2023/04/03 08:10:19;;;;;;;4.55;1.75;;;;;;;9.98;47.49;102924.78;3616549;39;20043;-68
2023/04/03 08:12:47;;;;;;;4.60;1.98;;;;;;;10.02;46.79;102933.66;3607317;39;20058;-69
2023/04/03 08:15:13;;;;;;;4.15;1.83;;;;;;;10.07;47.67;102907.56;3614122;39;20085;-69
2023/04/03 08:17:39;;;;;;;5.78;2.08;;;;;;;10.39;45.79;102930.91;3614399;39;20059;-69
2023/04/03 08:20:07;;;;;;;3.88;1.60;;;;;;;10.33;46.40;102936.47;3614595;39;20050;-69
2023/04/03 08:22:33;;;;;;;4.30;2.00;;;;;;;10.26;45.22;102907.06;3613758;39;20046;-69
2023/04/03 08:24:59;;;;;;;3.55;1.90;;;;;;;10.28;45.10;102911.53;3614892;39;20102;-69
2023/04/03 08:27:26;;;;;;;5.45;1.65;;;;;;;10.42;45.34;102930.84;3615580;39;20436;-69
2023/04/03 08:29:52;;;;;;;4.18;2.00;;;;;;;10.67;45.44;102925.66;3615009;39;20059;-71
2023/04/03 08:32:18;;;;;;;6.45;1.90;;;;;;;10.85;44.96;102923.38;3616078;39;20039;-69
2023/04/03 08:34:44;;;;;;;4.05;1.90;;;;;;;11.01;44.83;102932.75;3617126;39;20392;-68
2023/04/03 08:37:10;;;;;;;5.50;2.30;;;;;;;11.05;42.60;102930.84;3613448;39;20065;-68
2023/04/03 08:39:36;;;;;;;5.22;2.22;;;;;;;11.07;42.29;102931.69;3620408;39;20273;-68
2023/04/03 08:42:17;;;;;;;3.28;1.80;;;;;;;11.17;43.36;102938.56;3616940;39;20400;-70
2023/04/03 08:45:11;;;;;;;3.58;1.77;;;;;;;11.25;43.03;102939.19;3605507;39;20071;-69
2023/04/03 08:47:52;;;;;;;;;;;;;;;11.46;42.29;102947.53;3616232;39;20101;-68
2023/04/03 08:50:31;;;;;;;6.43;2.13;;;;;;;11.55;42.14;102933.78;3614560;39;19935;-70
2023/04/03 08:53:01;;;;;;;6.82;1.70;;;;;;;11.66;40.72;102939.69;3613639;39;20091;-69
2023/04/03 08:55:34;;;;;;;4.20;1.70;;;;;;;11.69;40.52;102934.19;3614626;39;20055;-70
2023/04/03 08:58:11;;;;;;;4.68;1.67;;;;;;;11.91;38.55;102944.31;3603622;39;20046;-69
2023/04/03 09:01:13;;;;;;;3.80;1.65;;;;;;;11.99;39.11;102950.34;3612477;39;20450;-69
2023/04/03 09:03:41;;;;;;;4.35;1.77;;;;;;;12.16;38.28;102945.25;3613544;39;20051;-69
2023/04/03 09:06:15;;;;;;;2.47;1.40;;;;;;;12.45;37.85;102936.13;3615186;39;20115;-70
2023/04/03 09:09:06;;;;;;;4.07;1.70;;;;;;;12.57;34.83;102947.41;3613351;39;20059;-70
2023/04/03 09:11:57;;;;;;;2.67;1.30;;;;;;;12.54;33.35;102935.78;3619714;39;20115;-67
2023/04/03 09:15:16;;;;;;;3.33;1.50;;;;;;;12.64;32.90;102947.13;3616926;39;20059;-67
2023/04/03 09:18:16;;;;;;;2.53;1.10;;;;;;;12.72;33.87;102934.25;3617856;39;20371;-67
2023/04/03 09:21:24;;;;;;;2.08;1.20;;;;;;;12.87;33.00;102937.28;3617459;39;20138;-67
2023/04/03 09:24:01;;;;;;;3.53;1.73;;;;;;;13.07;34.03;102941.94;3622065;39;20054;-69
2023/04/03 09:26:38;;;;;;;2.20;1.35;;;;;;;13.12;30.52;102948.91;3617180;39;20058;-67
2023/04/03 09:29:08;;;;;;;1.80;1.20;;;;;;;13.13;31.61;102937.19;3620103;39;20362;-67
2023/04/03 09:31:42;;;;;;;1.77;1.10;;;;;;;13.20;30.36;102952.22;3617313;39;20066;-67
2023/04/03 09:34:26;;;;;;;3.45;2.60;;;;;;;13.26;31.22;102951.13;3621566;39;20110;-67
2023/04/03 09:36:58;;;;;;;3.42;1.27;;;;;;;13.42;30.98;102957.69;3616647;39;20120;-67
2023/04/03 09:39:29;;;;;;;2.28;1.13;;;;;;;13.22;29.07;102944.03;3619155;39;20328;-69
2023/04/03 09:42:22;;;;;;;3.92;0.85;;;;;;;12.96;28.49;102943.22;3611038;39;20051;-69
2023/04/03 09:45:01;;;;;;;3.00;1.15;;;;;;;13.04;29.69;102934.84;3614409;39;20062;-67
2023/04/03 09:47:34;;;;;;;1.38;0.52;;;;;;;13.16;29.03;102933.47;3614681;39;20050;-69
2023/04/03 09:50:23;;;;;;;2.25;0.90;;;;;;;13.12;28.00;102931.84;3614363;39;20059;-67
2023/04/03 09:52:51;;;;;;;1.48;0.93;;;;;;;13.18;27.63;102931.59;3613906;39;20381;-69
2023/04/03 09:55:29;;;;;;;3.22;0.88;;;;;;;13.09;26.68;102929.25;3614621;39;20050;-68
2023/04/03 09:58:00;;;;;;;5.40;0.85;;;;;;;12.58;26.97;102874.50;3614592;39;20381;-69
2023/04/03 10:00:37;;;;;;;4.22;1.13;;;;;;;12.73;27.22;102909.00;3613614;39;20313;-69
2023/04/03 10:03:05;;;;;;;1.75;0.82;;;;;;;12.88;28.80;102923.75;3615424;39;20042;-69
2023/04/03 10:05:33;;;;;;;1.05;0.82;;;;;;;12.92;28.42;102911.00;3613709;39;20391;-69
2023/04/03 10:08:27;;;;;;;1.90;1.00;;;;;;;13.19;27.98;102912.66;3615265;39;20059;-68
2023/04/03 10:11:14;;;;;;;2.15;1.25;;;;;;;13.27;29.31;102903.38;3615871;39;20059;-68
2023/04/03 10:14:16;;;;;;;3.63;1.00;;;;;;;13.29;27.60;102925.78;3614311;39;20398;-67
2023/04/03 10:16:59;;;;;;;0.98;0.82;;;;;;;12.82;27.51;102842.13;3616106;39;20054;-69
2023/04/03 10:20:16;;;;;;;1.30;1.00;;;;;;;13.49;30.05;102912.38;3615000;39;20119;-66
2023/04/03 10:23:21;;;;;;;3.42;1.27;;;;;;;13.69;27.71;102914.25;3615161;39;20333;-67
2023/04/03 10:26:07;;;;;;;2.75;1.10;;;;;;;13.74;28.51;102922.19;3620479;39;20059;-67
2023/04/03 10:29:09;;;;;;;1.45;1.02;;;;;;;13.59;27.47;102916.47;3614937;39;20143;-68
2023/04/03 10:31:59;;;;;;;3.47;1.27;;;;;;;13.56;28.52;102905.78;3614690;39;20102;-67
2023/04/03 10:34:35;;;;;;;1.65;1.02;;;;;;;13.59;28.27;102899.38;3613441;39;20306;-67
2023/04/03 10:37:36;;;;;;;2.05;0.90;;;;;;;13.59;27.38;102883.16;3614546;39;20058;-67
2023/04/03 10:40:34;;;;;;;1.83;0.90;;;;;;;13.79;28.38;102891.28;3616395;39;20047;-68
2023/04/03 10:43:32;;;;;;;1.55;0.90;;;;;;;14.07;27.75;102893.69;3614622;39;20055;-67
2023/04/03 10:46:20;;;;;;;3.13;2.42;;;;;;;14.27;27.55;102873.91;3614650;39;20055;-67
2023/04/03 10:49:10;;;;;;;3.40;1.73;;;;;;;14.33;26.04;102878.13;3616329;39;20047;-68
2023/04/03 10:51:53;;;;;;;1.98;0.90;;;;;;;14.39;27.54;102880.56;3613864;39;20066;-67
2023/04/03 10:54:30;;;;;;;2.25;0.98;;;;;;;14.51;26.33;102884.59;3615329;39;20064;-67
2023/04/03 10:57:03;;;;;;;5.45;0.90;;;;;;;14.58;25.75;102872.53;3606642;39;20057;-67
2023/04/03 10:59:56;;;;;;;2.65;0.88;;;;;;;14.63;25.32;102863.25;3613578;39;20288;-67
2023/04/03 11:02:45;;;;;;;1.50;0.70;;;;;;;14.59;24.92;102840.00;3612711;39;20292;-67
2023/04/03 11:05:51;;;;;;;0.60;0.50;;;;;;;14.57;25.11;102854.53;3614215;39;20082;-67
2023/04/03 11:09:03;;;;;;;2.72;1.50;;;;;;;14.80;25.48;102858.88;3613934;39;20053;-67
2023/04/03 11:11:38;;;;;;;1.40;1.15;;;;;;;14.95;24.52;102858.16;3615475;39;20050;-68
2023/04/03 11:14:21;;;;;;;3.63;0.80;;;;;;;14.90;24.64;102848.50;3613724;39;20047;-68
2023/04/03 11:17:01;;;;;;;2.97;0.88;;;;;;;15.09;24.32;102854.78;3614567;39;20053;-68
2023/04/03 11:19:59;;;;;;;2.97;0.88;;;;;;;15.09;23.88;102855.66;3614449;39;20321;-68
2023/04/03 11:22:42;;;;;;;0.95;0.85;;;;;;;15.37;25.67;102854.31;3613186;39;20054;-68
2023/04/03 11:25:11;;;;;;;1.17;0.95;;;;;;;15.42;24.86;102846.84;3613670;39;20401;-68
2023/04/03 11:27:53;;;;;;;2.95;1.02;;;;;;;15.54;25.25;102829.09;3613955;39;20086;-68
2023/04/03 11:30:28;;;;;;;1.80;0.73;;;;;;;15.67;23.39;102845.63;3603669;39;20111;-69
2023/04/03 11:33:18;;;;;;;5.75;1.13;;;;;;;15.92;24.15;102840.69;3613167;39;20055;-68
2023/04/03 11:35:53;;;;;;;1.13;0.80;;;;;;;15.86;22.46;102797.63;3604605;39;20120;-68
2023/04/03 11:38:36;;;;;;;0.90;0.50;;;;;;;16.20;21.39;102825.66;3613778;39;20658;-68
2023/04/03 11:41:07;;;;;;;1.08;0.77;;;;;;;16.19;21.58;102827.50;3613776;39;20460;-68
2023/04/03 11:43:41;;;;;;;1.55;0.60;;;;;;;16.25;20.93;102826.28;3607242;39;20387;-68
2023/04/03 11:46:08;;;;;;;6.88;1.02;;;;;;;16.19;21.24;102823.91;3613970;39;20069;-68
2023/04/03 11:48:34;;;;;;;6.22;1.10;;;;;;;16.17;22.11;102832.09;3617221;39;20124;-73